createdAt,value
2018-05-27T00:02:22.374Z,18.10
2018-05-27T00:05:25.601Z,18.10
2018-05-27T00:08:28.063Z,18.10
2018-05-27T00:11:30.510Z,18.10
2018-05-27T00:14:32.970Z,18.10
2018-05-27T00:17:35.422Z,18.10
2018-05-27T00:20:37.897Z,18.10
2018-05-27T00:23:40.359Z,18.20
2018-05-27T00:26:42.827Z,18.20
2018-05-27T00:29:45.299Z,18.20
2018-05-27T00:32:47.730Z,18.20
2018-05-27T00:35:50.193Z,18.20
2018-05-27T00:38:52.662Z,18.20
2018-05-27T00:41:55.117Z,18.10
2018-05-27T00:44:57.595Z,18.20
2018-05-27T00:48:00.021Z,18.10
2018-05-27T00:51:02.490Z,18.10
2018-05-27T00:54:04.949Z,18.10
2018-05-27T00:57:07.409Z,18.00
2018-05-27T01:00:09.875Z,18.00
2018-05-27T01:03:12.314Z,17.80
2018-05-27T01:06:15.550Z,17.80
2018-05-27T01:09:18.011Z,17.80
2018-05-27T01:12:20.457Z,17.80
2018-05-27T01:15:22.923Z,17.70
2018-05-27T01:18:25.377Z,17.80
2018-05-27T01:21:27.831Z,17.80
2018-05-27T01:24:30.285Z,17.60
2018-05-27T01:27:32.741Z,17.60
2018-05-27T01:30:35.205Z,17.60
2018-05-27T01:33:37.657Z,17.70
2018-05-27T01:36:40.105Z,17.70
2018-05-27T01:39:42.585Z,17.70
2018-05-27T01:42:45.021Z,17.70
2018-05-27T01:45:47.485Z,17.70
2018-05-27T01:48:49.934Z,17.70
2018-05-27T01:51:52.393Z,17.70
2018-05-27T01:54:54.861Z,17.60
2018-05-27T01:57:57.314Z,17.50
2018-05-27T02:01:00.534Z,17.40
2018-05-27T02:04:02.997Z,17.40
2018-05-27T02:07:05.458Z,17.40
2018-05-27T02:10:08.677Z,17.30
2018-05-27T02:13:11.133Z,17.30
2018-05-27T02:16:14.366Z,17.30
2018-05-27T02:19:16.817Z,17.30
2018-05-27T02:22:19.285Z,17.30
2018-05-27T02:25:22.505Z,17.10
2018-05-27T02:28:24.962Z,17.10
2018-05-27T02:31:28.183Z,17.30
2018-05-27T02:34:30.637Z,17.20
2018-05-27T02:37:33.149Z,17.40
2018-05-27T02:40:35.610Z,17.40
2018-05-27T02:43:38.061Z,17.30
2018-05-27T02:46:40.527Z,17.10
2018-05-27T02:49:43.758Z,16.80
2018-05-27T02:52:46.234Z,16.70
2018-05-27T02:55:48.711Z,16.50
2018-05-27T02:58:51.162Z,16.30
2018-05-27T03:01:54.399Z,16.20
2018-05-27T03:04:56.850Z,16.20
2018-05-27T03:07:59.313Z,16.40
2018-05-27T03:11:02.550Z,16.60
2018-05-27T03:14:05.001Z,16.60
2018-05-27T03:17:07.453Z,16.70
2018-05-27T03:20:10.797Z,16.70
2018-05-27T03:23:13.258Z,16.80
2018-05-27T03:26:15.730Z,16.80
2018-05-27T03:29:18.171Z,16.80
2018-05-27T03:32:20.621Z,16.80
2018-05-27T03:35:23.066Z,16.80
2018-05-27T03:38:25.525Z,16.90
2018-05-27T03:41:27.981Z,16.90
2018-05-27T03:44:31.198Z,16.90
2018-05-27T03:47:34.413Z,17.00
2018-05-27T03:50:36.854Z,17.00
2018-05-27T03:53:40.083Z,17.20
2018-05-27T03:56:42.545Z,17.20
2018-05-27T03:59:44.990Z,17.40
2018-05-27T04:02:47.457Z,17.50
2018-05-27T04:06:01.690Z,17.50
2018-05-27T04:09:04.148Z,17.50
2018-05-27T04:12:06.614Z,17.60
2018-05-27T04:15:09.056Z,17.60
2018-05-27T04:18:12.278Z,17.70
2018-05-27T04:21:14.733Z,17.70
2018-05-27T04:24:17.195Z,17.70
2018-05-27T04:27:19.653Z,17.80
2018-05-27T04:30:22.093Z,17.90
2018-05-27T04:33:24.557Z,18.00
2018-05-27T04:36:27.020Z,18.10
2018-05-27T04:39:30.234Z,18.20
2018-05-27T04:42:32.708Z,18.20
2018-05-27T04:45:35.169Z,18.30
2018-05-27T04:48:38.385Z,18.50
2018-05-27T04:51:40.843Z,18.40
2018-05-27T04:54:44.070Z,18.80
2018-05-27T04:57:46.529Z,18.70
2018-05-27T05:00:48.980Z,18.90
2018-05-27T05:03:52.205Z,19.20
2018-05-27T05:06:54.672Z,19.20
2018-05-27T05:09:57.881Z,20.20
2018-05-27T05:13:00.348Z,20.20
2018-05-27T05:16:02.798Z,20.70
2018-05-27T05:19:06.022Z,22.90
2018-05-27T05:22:08.486Z,22.90
2018-05-27T05:25:11.696Z,26.60
2018-05-27T05:28:14.160Z,26.50
2018-05-27T05:31:16.606Z,27.90
2018-05-27T05:34:19.054Z,29.00
2018-05-27T05:37:21.511Z,29.70
2018-05-27T05:40:23.966Z,30.50
2018-05-27T05:43:26.423Z,31.40
2018-05-27T05:46:29.637Z,32.50
2018-05-27T05:49:32.100Z,32.50
2018-05-27T05:52:34.558Z,32.80
2018-05-27T05:55:37.104Z,33.00
2018-05-27T05:58:39.561Z,33.30
2018-05-27T06:01:42.033Z,33.90
2018-05-27T06:04:44.501Z,34.70
2018-05-27T06:07:46.960Z,34.80
2018-05-27T06:10:50.177Z,34.40
2018-05-27T06:13:52.629Z,34.40
2018-05-27T06:16:55.841Z,34.40
2018-05-27T06:19:58.321Z,34.40
2018-05-27T06:23:00.762Z,34.50
2018-05-27T06:26:03.228Z,34.80
2018-05-27T06:29:05.689Z,35.00
2018-05-27T06:32:08.202Z,34.80
2018-05-27T06:35:10.625Z,34.70
2018-05-27T06:38:13.079Z,34.20
2018-05-27T06:41:15.533Z,34.40
2018-05-27T06:44:18.775Z,33.90
2018-05-27T06:47:21.205Z,33.90
2018-05-27T06:50:24.433Z,34.60
2018-05-27T06:53:26.887Z,34.50
2018-05-27T06:56:29.399Z,33.90
2018-05-27T06:59:31.797Z,33.30
2018-05-27T07:02:34.262Z,33.20
2018-05-27T07:05:36.743Z,33.50
2018-05-27T07:08:39.187Z,33.50
2018-05-27T07:11:41.686Z,33.40
2018-05-27T07:14:44.130Z,32.90
2018-05-27T07:17:46.576Z,33.10
2018-05-27T07:20:54.790Z,33.90
2018-05-27T07:23:58.037Z,34.30
2018-05-27T07:27:00.502Z,34.30
2018-05-27T07:30:02.978Z,34.20
2018-05-27T07:33:05.437Z,35.00
2018-05-27T07:36:07.902Z,35.30
2018-05-27T07:39:11.369Z,34.90
2018-05-27T07:42:14.115Z,34.80
2018-05-27T07:45:16.601Z,34.40
2018-05-27T07:48:19.087Z,34.30
2018-05-27T07:51:21.812Z,34.00
2018-05-27T07:54:25.059Z,32.90
2018-05-27T07:57:27.498Z,32.90
2018-05-27T08:00:30.756Z,33.10
2018-05-27T08:03:33.212Z,33.10
2018-05-27T08:06:35.674Z,33.70
2018-05-27T08:09:38.133Z,34.30
2018-05-27T08:12:40.584Z,34.30
2018-05-27T08:15:43.041Z,34.70
2018-05-27T08:18:45.493Z,34.50
2018-05-27T08:21:47.958Z,34.10
2018-05-27T08:24:50.426Z,33.80
2018-05-27T08:27:52.865Z,33.60
2018-05-27T08:30:55.333Z,32.90
2018-05-27T08:33:57.773Z,32.80
2018-05-27T08:37:00.234Z,33.00
2018-05-27T08:40:02.711Z,33.20
2018-05-27T08:43:05.150Z,33.00
2018-05-27T08:46:07.611Z,33.10
2018-05-27T08:49:10.049Z,32.90
2018-05-27T08:52:12.513Z,33.00
2018-05-27T08:55:14.962Z,32.60
2018-05-27T08:58:18.192Z,32.20
2018-05-27T09:01:20.718Z,32.20
2018-05-27T09:04:23.859Z,30.90
2018-05-27T09:07:26.314Z,30.80
2018-05-27T09:10:29.552Z,31.00
2018-05-27T09:13:32.001Z,31.00
2018-05-27T09:16:34.505Z,31.10
2018-05-27T09:19:36.957Z,30.50
2018-05-27T09:22:39.418Z,30.30
2018-05-27T09:25:42.637Z,29.70
2018-05-27T09:28:45.090Z,29.60
2018-05-27T09:31:48.313Z,28.60
2018-05-27T09:34:50.765Z,28.60
2018-05-27T09:37:53.222Z,28.40
2018-05-27T09:40:55.673Z,28.40
2018-05-27T09:43:58.142Z,28.20
2018-05-27T09:47:00.636Z,28.20
2018-05-27T09:50:03.078Z,27.90
2018-05-27T09:53:05.542Z,27.60
2018-05-27T09:56:08.013Z,27.40
2018-05-27T09:59:10.454Z,27.40
2018-05-27T10:02:12.917Z,27.30
2018-05-27T10:05:15.451Z,27.20
2018-05-27T10:08:17.889Z,27.10
2018-05-27T10:11:21.125Z,26.90
2018-05-27T10:14:23.561Z,26.90
2018-05-27T10:17:26.791Z,26.60
2018-05-27T10:20:29.265Z,26.50
2018-05-27T10:23:31.744Z,26.50
2018-05-27T10:26:34.194Z,26.40
2018-05-27T10:29:37.414Z,26.20
2018-05-27T10:32:39.873Z,26.20
2018-05-27T10:35:43.085Z,26.20
2018-05-27T10:38:45.546Z,26.10
2018-05-27T10:41:48.770Z,26.20
2018-05-27T10:44:51.217Z,26.20
2018-05-27T10:47:54.429Z,26.40
2018-05-27T10:50:56.888Z,26.40
2018-05-27T10:54:00.105Z,26.50
2018-05-27T10:57:02.573Z,26.40
2018-05-27T11:00:05.011Z,26.30
2018-05-27T11:03:07.481Z,26.30
2018-05-27T11:06:09.927Z,26.30
2018-05-27T11:09:12.389Z,26.20
2018-05-27T11:12:14.889Z,26.00
2018-05-27T11:15:17.330Z,26.00
2018-05-27T11:18:19.792Z,26.10
2018-05-27T11:21:23.018Z,26.00
2018-05-27T11:24:25.501Z,26.00
2018-05-27T11:27:27.958Z,26.10
2018-05-27T11:30:30.417Z,26.10
2018-05-27T11:33:33.650Z,26.20
2018-05-27T11:36:36.105Z,26.20
2018-05-27T11:39:38.575Z,26.20
2018-05-27T11:42:41.041Z,26.20
2018-05-27T11:45:44.270Z,26.10
2018-05-27T11:48:46.742Z,26.10
2018-05-27T11:51:49.197Z,26.10
2018-05-27T11:54:51.671Z,26.10
2018-05-27T11:57:54.137Z,26.00
2018-05-27T12:00:57.374Z,25.90
2018-05-27T12:03:59.837Z,25.80
2018-05-27T12:07:02.293Z,26.00
2018-05-27T12:10:05.546Z,26.00
2018-05-27T12:13:08.030Z,26.00
2018-05-27T12:16:10.485Z,25.90
2018-05-27T12:19:12.949Z,26.00
2018-05-27T12:22:15.421Z,26.20
2018-05-27T12:25:17.897Z,26.20
2018-05-27T12:28:20.354Z,26.10
2018-05-27T12:31:23.575Z,26.10
2018-05-27T12:34:26.037Z,26.10
2018-05-27T12:37:28.487Z,26.10
2018-05-27T12:40:31.731Z,25.70
2018-05-27T12:43:34.189Z,25.60
2018-05-27T12:46:36.645Z,25.70
2018-05-27T12:49:39.881Z,25.80
2018-05-27T12:52:42.356Z,25.80
2018-05-27T12:55:44.814Z,25.90
2018-05-27T12:58:47.273Z,25.90
2018-05-27T13:01:49.734Z,25.80
2018-05-27T13:04:52.213Z,25.80
2018-05-27T13:07:54.697Z,25.70
2018-05-27T13:10:57.924Z,25.70
2018-05-27T13:14:00.401Z,25.70
2018-05-27T13:17:02.885Z,25.90
2018-05-27T13:20:05.334Z,26.20
2018-05-27T13:23:07.795Z,26.30
2018-05-27T13:26:11.017Z,26.60
2018-05-27T13:29:13.487Z,26.60
2018-05-27T13:32:15.936Z,26.70
2018-05-27T13:35:19.169Z,26.60
2018-05-27T13:38:21.632Z,26.60
2018-05-27T13:41:24.076Z,26.40
2018-05-27T13:44:26.558Z,26.40
2018-05-27T13:47:29.008Z,26.40
2018-05-27T13:50:31.469Z,26.60
2018-05-27T13:53:33.938Z,26.70
2018-05-27T13:56:36.386Z,26.70
2018-05-27T13:59:38.909Z,26.60
2018-05-27T14:02:41.366Z,26.60
2018-05-27T14:05:43.844Z,26.60
2018-05-27T14:08:46.313Z,26.50
2018-05-27T14:11:48.769Z,26.30
2018-05-27T14:14:51.233Z,26.30
2018-05-27T14:17:54.456Z,26.10
2018-05-27T14:20:56.923Z,26.10
2018-05-27T14:23:59.401Z,26.10
2018-05-27T14:27:01.857Z,26.10
2018-05-27T14:30:04.317Z,25.90
2018-05-27T14:33:06.785Z,25.90
2018-05-27T14:36:09.274Z,25.80
2018-05-27T14:39:11.722Z,25.70
2018-05-27T14:42:14.174Z,25.60
2018-05-27T14:45:16.675Z,25.50
2018-05-27T14:48:19.136Z,25.30
2018-05-27T14:51:21.597Z,25.20
2018-05-27T14:54:24.065Z,25.10
2018-05-27T14:57:27.270Z,25.20
2018-05-27T15:00:29.729Z,25.20
2018-05-27T15:03:32.958Z,25.00
2018-05-27T15:06:35.405Z,24.90
2018-05-27T15:09:37.873Z,24.80
2018-05-27T15:12:41.093Z,24.50
2018-05-27T15:15:43.559Z,24.50
2018-05-27T15:18:46.013Z,24.40
2018-05-27T15:21:49.275Z,24.20
2018-05-27T15:24:51.751Z,24.10
2018-05-27T15:27:54.216Z,24.00
2018-05-27T15:30:56.670Z,23.80
2018-05-27T15:33:59.125Z,23.70
2018-05-27T15:37:02.353Z,23.50
2018-05-27T15:40:04.942Z,23.50
2018-05-27T15:43:07.394Z,23.50
2018-05-27T15:46:09.858Z,23.40
2018-05-27T15:49:12.330Z,23.30
2018-05-27T15:52:14.806Z,23.30
2018-05-27T15:55:17.274Z,23.30
2018-05-27T15:58:20.496Z,23.20
2018-05-27T16:01:22.957Z,23.20
2018-05-27T16:04:26.182Z,23.20
2018-05-27T16:07:28.645Z,23.20
2018-05-27T16:10:31.122Z,23.20
2018-05-27T16:13:33.581Z,23.30
2018-05-27T16:16:36.805Z,23.30
2018-05-27T16:19:39.299Z,23.30
2018-05-27T16:22:41.767Z,23.30
2018-05-27T16:25:44.229Z,23.30
2018-05-27T16:28:50.667Z,23.20
2018-05-27T16:31:53.902Z,23.00
2018-05-27T16:34:56.413Z,23.00
2018-05-27T16:37:58.866Z,22.90
2018-05-27T16:41:01.337Z,22.80
2018-05-27T16:44:03.798Z,22.70
2018-05-27T16:47:06.273Z,22.70
2018-05-27T16:50:08.753Z,22.60
2018-05-27T16:53:11.205Z,22.60
2018-05-27T16:56:14.439Z,21.80
2018-05-27T16:59:16.906Z,21.70
2018-05-27T17:02:19.384Z,21.40
2018-05-27T17:05:21.862Z,21.10
2018-05-27T17:08:24.311Z,20.90
2018-05-27T17:11:29.441Z,20.60
2018-05-27T17:14:31.911Z,20.60
2018-05-27T17:17:38.915Z,20.00
2018-05-27T17:20:42.141Z,19.80
2018-05-27T17:23:44.600Z,19.80
2018-05-27T17:26:47.426Z,19.60
2018-05-27T17:29:49.873Z,19.40
2018-05-27T17:32:52.335Z,19.20
2018-05-27T17:35:54.840Z,19.20
2018-05-27T17:38:58.006Z,19.10
2018-05-27T17:42:00.472Z,19.00
2018-05-27T17:45:03.690Z,19.40
2018-05-27T17:48:11.698Z,19.40
2018-05-27T17:51:14.162Z,19.40
2018-05-27T17:54:16.623Z,19.20
2018-05-27T17:57:19.842Z,18.80
2018-05-27T18:00:22.317Z,18.70
2018-05-27T18:03:24.790Z,18.60
2018-05-27T18:06:27.249Z,18.50
2018-05-27T18:09:29.712Z,18.40
2018-05-27T18:12:32.940Z,18.60
2018-05-27T18:15:35.411Z,18.60
2018-05-27T18:18:37.865Z,18.60
2018-05-27T18:21:41.097Z,18.70
2018-05-27T18:24:43.546Z,18.60
2018-05-27T18:27:46.019Z,18.70
2018-05-27T18:30:49.253Z,18.90
2018-05-27T18:33:51.733Z,18.80
2018-05-27T18:36:54.196Z,18.90
2018-05-27T18:39:56.652Z,19.00
2018-05-27T18:42:59.117Z,19.00
2018-05-27T18:46:02.361Z,18.70
2018-05-27T18:49:04.811Z,18.60
2018-05-27T18:52:07.273Z,18.70
2018-05-27T18:55:09.726Z,18.70
2018-05-27T18:58:12.190Z,18.70
2018-05-27T19:01:14.668Z,18.60
2018-05-27T19:04:17.161Z,18.50
2018-05-27T19:07:19.606Z,18.40
2018-05-27T19:10:22.063Z,18.30
2018-05-27T19:13:24.532Z,18.30
2018-05-27T19:16:27.015Z,18.30
2018-05-27T19:19:29.461Z,18.20
2018-05-27T19:22:32.705Z,18.10
2018-05-27T19:25:35.158Z,18.10
2018-05-27T19:28:37.636Z,18.10
2018-05-27T19:31:40.085Z,18.00
2018-05-27T19:34:43.318Z,17.80
2018-05-27T19:37:45.782Z,17.80
2018-05-27T19:40:48.230Z,17.90
2018-05-27T19:43:51.474Z,17.90
2018-05-27T19:46:53.945Z,17.90
2018-05-27T19:49:56.401Z,17.90
2018-05-27T19:52:58.862Z,17.80
2018-05-27T19:56:02.100Z,17.70
2018-05-27T19:59:04.558Z,17.70
2018-05-27T20:02:07.013Z,17.70
2018-05-27T20:05:09.473Z,17.70
2018-05-27T20:08:12.706Z,17.80
2018-05-27T20:11:15.150Z,17.80
2018-05-27T20:14:18.382Z,17.90
2018-05-27T20:17:20.846Z,17.90
2018-05-27T20:20:23.298Z,18.00
2018-05-27T20:23:26.522Z,18.00
2018-05-27T20:26:28.977Z,18.00
2018-05-27T20:29:31.455Z,17.90
2018-05-27T20:32:34.671Z,17.80
2018-05-27T20:35:37.121Z,17.80
2018-05-27T20:38:40.349Z,17.80
2018-05-27T20:41:42.810Z,17.80
2018-05-27T20:44:45.290Z,17.80
2018-05-27T20:47:47.766Z,17.70
2018-05-27T20:50:50.273Z,17.70
2018-05-27T20:53:52.739Z,17.60
2018-05-27T20:56:55.205Z,17.60
2018-05-27T20:59:57.682Z,17.60
2018-05-27T21:03:00.175Z,17.60
2018-05-27T21:06:02.629Z,17.60
2018-05-27T21:09:05.123Z,17.60
2018-05-27T21:12:07.614Z,17.60
2018-05-27T21:15:10.127Z,17.60
2018-05-27T21:18:12.604Z,17.60
2018-05-27T21:21:15.126Z,17.60
2018-05-27T21:24:17.615Z,17.60
2018-05-27T21:27:20.122Z,17.60
2018-05-27T21:30:22.674Z,17.70
2018-05-27T21:33:25.183Z,17.70
2018-05-27T21:36:27.658Z,17.80
2018-05-27T21:39:30.161Z,17.90
2018-05-27T21:42:32.719Z,17.90
2018-05-27T21:45:35.200Z,17.90
2018-05-27T21:48:37.689Z,17.90
2018-05-27T21:51:40.954Z,17.90
2018-05-27T21:54:43.483Z,17.80
2018-05-27T21:57:45.985Z,17.80
2018-05-27T22:00:48.469Z,17.70
2018-05-27T22:03:50.958Z,17.70
2018-05-27T22:06:53.426Z,17.70
2018-05-27T22:09:55.930Z,17.70
2018-05-27T22:12:59.204Z,17.90
2018-05-27T22:16:01.695Z,17.90
2018-05-27T22:19:04.217Z,18.00
2018-05-27T22:22:06.722Z,18.20
2018-05-27T22:25:09.246Z,18.20
2018-05-27T22:28:11.733Z,18.30
2018-05-27T22:31:14.989Z,18.50
2018-05-27T22:34:17.482Z,18.40
2018-05-27T22:37:20.003Z,18.50
2018-05-27T22:40:22.508Z,18.60
2018-05-27T22:43:25.014Z,18.60
2018-05-27T22:46:27.494Z,18.50
2018-05-27T22:49:30.005Z,18.50
2018-05-27T22:52:33.246Z,18.50
2018-05-27T22:55:35.754Z,18.50
2018-05-27T22:58:38.338Z,18.40
2018-05-27T23:01:40.842Z,18.30
2018-05-27T23:04:43.343Z,18.30
2018-05-27T23:07:45.821Z,18.30
2018-05-27T23:10:48.323Z,18.30
2018-05-27T23:13:50.882Z,18.30
2018-05-27T23:16:53.359Z,18.30
2018-05-27T23:19:55.859Z,18.20
2018-05-27T23:22:58.332Z,18.10
2018-05-27T23:26:00.812Z,18.10
2018-05-27T23:29:03.294Z,18.10
2018-05-27T23:32:06.579Z,18.10
2018-05-27T23:35:09.057Z,18.10
2018-05-27T23:38:11.550Z,18.00
2018-05-27T23:41:14.035Z,17.90
2018-05-27T23:44:16.575Z,17.70
2018-05-27T23:47:19.079Z,17.60
2018-05-27T23:50:21.582Z,17.50
2018-05-27T23:53:24.882Z,17.60
2018-05-27T23:56:28.126Z,17.70
2018-05-27T23:59:30.634Z,17.70
